Custom Search

Airport METAR Reports

 

YMAV - Avalon Airport, Australia
Distance from station: 0 0km
Updated: 25/01/2017 02:00
Mostly cloudy
Mostly cloudy
 Wind from NW
Wind: NW 7 km/h
Temperature: 12°C
Dew Point: 9°C
Humidity: 82%
Barometer: 1021 hPa
Clouds: Mostly cloudy
Visibility: 10 km
Cloud details: Mostly cloudy 975 m
2017/01/24 15:00 YMAV 241500Z AUTO 32004KT 9999 // BKN032 12/09 Q1021
YMML - Melbourne Intl A, Australia
Distance from station: NE 50km
Updated: 25/01/2017 02:00
Mostly cloudy
Mostly cloudy
 Wind from ESE
Wind: ESE 13 km/h
Temperature: 15°C
Dew Point: 8°C
Humidity: 63%
Barometer: 1021 hPa
Clouds: Mostly cloudy
Visibility: 10 km
Cloud details: Mostly cloudy 1006 m
2017/01/24 15:00 YMML 241500Z 12007KT 9999 BKN033 15/08 Q1021 NOSIG
YMEN - Melbourne/Essend, Australia
Distance from station: NE 51km
Updated: 25/01/2017 02:00
Overcast
Overcast
 Wind from ESE
Wind: ESE 13 km/h
Temperature: 15°C
Dew Point: 8°C
Humidity: 63%
Barometer: 1020 hPa
Clouds: Overcast
Visibility: 10 km
Cloud details: Overcast 1128 m
2017/01/24 15:00 YMEN 241500Z AUTO 12007KT 9999 // OVC037 15/08 Q1020
 
YWGT - Wangaratta Arp, Australia
Distance from station: NE 241km
Updated: 25/01/2017 02:00
Clear
Clear
 Wind from SSW
Wind: SSW 11 km/h
Temperature: 16°C
Dew Point: 8°C
Humidity: 59%
Barometer: 1016 hPa
Clouds: Clear
Visibility: 10 km
2017/01/24 15:00 YWGT 241500Z AUTO 20006KT 9999 // NCD 16/08 Q1016
YMAY - Albury Airport, Australia
Distance from station: NE 308km
Updated: 25/01/2017 02:00
Clear
Clear
 Wind from calm
Wind: Calm
Temperature: 17°C
Dew Point: 10°C
Humidity: 64%
Barometer: 1015 hPa
Clouds: Clear
Visibility: 10 km
2017/01/24 15:00 YMAY 241500Z AUTO 00000KT 9999 // NCD 17/10 Q1015
YMTG - Mount Gambier, Australia
Distance from station: W 326km
Updated: 25/01/2017 02:00
Clear
Clear
 Wind from calm
Wind: Calm
Temperature: 10°C
Dew Point: 9°C
Humidity: 94%
Barometer: 1021 hPa
Clouds: Clear
Visibility: 10 km
2017/01/24 15:00 YMTG 241500Z AUTO 00000KT 9999 // NCD 10/09 Q1021
 
YNAR - Narrandera, Australia
Distance from station: NNE 413km
Updated: 25/01/2017 02:00

 Wind from SSE
Wind: SSE 9 km/h
Temperature: 19°C
Dew Point: 7°C
Humidity: 46%
Barometer: 1016 hPa
2017/01/24 15:00 YNAR 241500Z AUTO 16005KT //// // ////// 19/07 Q1016
YSWG - Wagga Wagga(Cv/M, Australia
Distance from station: NE 418km
Updated: 25/01/2017 02:00
Clear
Clear
 Wind from calm
Wind: Calm
Temperature: 18°C
Dew Point: 7°C
Humidity: 49%
Barometer: 1015 hPa
Clouds: Clear
Visibility: 10 km
2017/01/24 15:00 YSWG 241500Z AUTO 00000KT 9999 // NCD 18/07 Q1015
YCOM - Cooma Snowy Mtns, Australia
Distance from station: ENE 441km
Updated: 25/01/2017 02:00
Overcast
Overcast
 Wind from S
Wind: S 11 km/h
Temperature: 14°C
Dew Point: 8°C
Humidity: 67%
Barometer: 1021 hPa
Clouds: Overcast
Visibility: 10 km
Cloud details: Overcast 671 m
2017/01/24 15:00 YCOM 241500Z AUTO 17006KT 9999 // OVC022 14/08 Q1021
 
YGTH - Griffith Arpt, Australia
Distance from station: NNE 444km
Updated: 25/01/2017 02:00
Clear
Clear
 Wind from SSE
Wind: SSE 17 km/h
Temperature: 20°C
Dew Point: 7°C
Humidity: 43%
Barometer: 1016 hPa
Clouds: Clear
Visibility: 10 km
2017/01/24 15:00 YGTH 241500Z AUTO 16009KT 9999 // NCD 20/07 Q1016
YMLT - Launceston Airpo, Australia
Distance from station: SSE 451km
Updated: 25/01/2017 02:00
Clear
Clear
 Wind from NNW
Wind: NNW 9 km/h
Temperature: 8°C
Wind Chill: 6°C
Dew Point: 2°C
Humidity: 66%
Barometer: 1018 hPa
Clouds: Clear
Visibility: 10 km
2017/01/24 15:00 YMLT 241500Z AUTO 33005KT 9999 // NCD 08/02 Q1018
YMIA - Mildura Arpt, Australia
Distance from station: NNW 474km
Updated: 25/01/2017 02:00
Clear
Clear
 Wind from S
Wind: S 13 km/h
Temperature: 19°C
Dew Point: 7°C
Humidity: 46%
Barometer: 1017 hPa
Clouds: Clear
Visibility: 10 km
2017/01/24 15:00 YMIA 241500Z AUTO 19007KT 9999 // NCD 19/07 Q1017
 
YMER - Merimbula Arpt, Australia
Distance from station: ENE 494km
Updated: 25/01/2017 02:00
Overcast
Overcast
 Wind from S
Wind: S 7 km/h
Temperature: 17°C
Dew Point: 10°C
Humidity: 64%
Barometer: 1020 hPa
Clouds: Overcast
Visibility: 10 km
Cloud details: Overcast 2286 m
2017/01/24 15:00 YMER 241500Z AUTO 19004KT 9999 // OVC075 17/10 Q1020
YSCB - Canberra (civ/Mi, Australia
Distance from station: NE 518km
Updated: 25/01/2017 02:00
Overcast
Overcast
 Wind from E
Wind: E 15 km/h
Temperature: 17°C
Dew Point: 13°C
Humidity: 77%
Barometer: 1020 hPa
Clouds: Overcast
Visibility: 10 km
Cloud details: Overcast 457 m
2017/01/24 15:00 YSCB 241500Z AUTO 10008KT 9999 // OVC015 17/13 Q1020
YMHB - Hobart/Tasmania, Australia
Distance from station: SSE 590km
Updated: 25/01/2017 02:00
Clear
Clear
 Wind from NNW
Wind: NNW 22 km/h
Temperature: 14°C
Dew Point: 3°C
Humidity: 48%
Barometer: 1016 hPa
Summary: Clear
Visibility: greater than 10 km
2017/01/24 15:00 YMHB 241500Z 33012KT CAVOK 14/03 Q1016